< < Back
Terminal Aerodrome Forecast


Current Version              Previous Versions:   1  2  3  4  5  6  7  8  9  

Terminal Aerodrome Forecast

386
FTUS44 KBMX 271700
TAFTCL
TAF
KTCL 271737Z 2718/2818 01008KT P6SM SKC
     FM280300 03003KT P6SM BKN250
     FM280900 05003KT P6SM OVC120=



Latest METAR

697
SAUS70 KWBC 281700 RRB
MTRTCL
METAR KTCL 281653Z VRB05KT 10SM CLR 12/M01 A3050 RMK AO2 SLP327
T01171006


USA.gov is the U.S. government's official web portal to all federal, state and local government web resources and services.